Time;durP1;ratioP1;P1;durP2;ratioP2;P2;SDS_P1;SDS_P2;PMS_P1;PMS_P2;Temp;Humidity;BMP_temperature;BMP_pressure;BME280_temperature;BME280_humidity;BME280_pressure;Samples;Min_cycle;Max_cycle;Signal;HPM_P1;HPM_P2
2022/03/21 00:01:24;;;;;;;16.67;12.10;;;;;;;2.69;30.97;101025.91;6368330;22;20025;-86
2022/03/21 00:03:50;;;;;;;15.97;12.00;;;;;;;3.08;31.05;101153.16;6368047;22;19994;-88
2022/03/21 00:06:16;;;;;;;15.47;12.10;;;;;;;3.02;31.10;101103.94;6368057;22;19982;-86
2022/03/21 00:08:43;;;;;;;16.77;12.03;;;;;;;2.44;30.99;100984.81;6368315;22;20012;-86
2022/03/21 00:11:09;;;;;;;14.43;11.87;;;;;;;1.92;31.06;100907.06;6368258;22;20014;-88
2022/03/21 00:13:35;;;;;;;17.63;12.37;;;;;;;3.16;30.93;101132.66;6368098;22;19994;-86
2022/03/21 00:16:01;;;;;;;17.23;12.57;;;;;;;1.97;31.18;100964.09;6367933;22;20006;-85
2022/03/21 00:18:27;;;;;;;15.07;11.87;;;;;;;1.99;31.34;100928.41;6367964;22;19994;-85
2022/03/21 00:20:55;;;;;;;16.33;11.20;;;;;;;4.82;31.57;101433.53;6341207;22;19995;-87
2022/03/21 00:23:21;;;;;;;17.17;12.43;;;;;;;1.75;32.03;100965.34;6367897;22;20042;-87
2022/03/21 00:25:47;;;;;;;15.50;11.83;;;;;;;2.41;31.89;101077.06;6368239;22;20010;-87
2022/03/21 00:28:12;;;;;;;15.33;11.57;;;;;;;2.60;31.93;101076.00;6341262;22;19990;-86
2022/03/21 00:30:42;;;;;;;16.53;12.33;;;;;;;1.96;31.97;101012.75;6341222;22;20011;-85
2022/03/21 00:33:08;;;;;;;17.77;12.87;;;;;;;1.37;32.41;100930.19;6367978;22;19994;-85
2022/03/21 00:35:35;;;;;;;18.50;13.67;;;;;;;2.64;32.71;101167.00;6368096;22;19983;-85
2022/03/21 00:38:00;;;;;;;18.23;12.33;;;;;;;2.85;32.63;101199.66;6367779;22;19983;-85
2022/03/21 00:40:26;;;;;;;17.77;13.27;;;;;;;2.49;32.78;101111.34;6367673;22;19987;-84
2022/03/21 00:42:52;;;;;;;18.60;13.30;;;;;;;1.36;32.63;100923.31;6367673;22;19987;-86
2022/03/21 00:50:28;;;;;;;17.93;13.77;;;;;;;1.40;33.60;100990.69;6319581;22;20010;-81
2022/03/21 00:52:56;;;;;;;20.57;13.37;;;;;;;1.16;33.45;100968.63;6340597;22;19987;-85
2022/03/21 01:00:32;;;;;;;22.80;16.00;;;;;;;1.48;33.82;101021.50;6359299;22;20026;-82
2022/03/21 01:05:33;;;;;;;22.70;15.53;;;;;;;3.28;33.72;101312.03;6325751;22;20003;-84
2022/03/21 01:07:59;;;;;;;20.57;15.97;;;;;;;1.54;34.02;101016.00;6367336;22;19998;-83
2022/03/21 01:10:26;;;;;;;20.90;14.77;;;;;;;1.01;34.13;100915.69;6367202;22;20002;-84
2022/03/21 01:16:19;;;;;;;21.17;14.77;;;;;;;3.97;34.44;101381.19;6301229;22;20040;-85
2022/03/21 01:18:56;;;;;;;22.90;15.03;;;;;;;1.30;34.03;101014.72;6320795;22;20030;-82
2022/03/21 01:24:04;;;;;;;19.25;14.48;;;;;;;1.20;34.42;100965.78;6310463;22;20003;-83
2022/03/21 01:37:32;;;;;;;18.10;13.27;;;;;;;1.87;34.30;101100.06;6304529;22;20034;-84
2022/03/21 01:39:57;;;;;;;17.33;14.17;;;;;;;2.00;34.19;101122.81;6339410;22;19999;-85
2022/03/21 01:48:01;;;;;;;17.33;12.83;;;;;;;2.68;34.26;101180.69;6352629;22;20003;-82
2022/03/21 01:50:26;;;;;;;17.77;12.77;;;;;;;1.16;34.24;100948.66;6298072;22;20003;-82
2022/03/21 01:55:43;;;;;;;18.43;12.97;;;;;;;2.82;34.39;101191.16;6367981;22;19995;-84
2022/03/21 02:05:58;;;;;;;14.53;12.27;;;;;;;1.90;34.24;101078.22;6336330;22;20017;-83
2022/03/21 02:08:25;;;;;;;15.03;12.30;;;;;;;1.59;33.87;101013.97;6361678;22;19991;-83
2022/03/21 02:21:27;;;;;;;16.77;12.83;;;;;;;1.00;34.38;100920.97;6332910;22;20029;-84
2022/03/21 02:34:36;;;;;;;20.42;13.65;;;;;;;0.92;34.55;100898.81;6364219;22;20013;-81
2022/03/21 02:37:03;;;;;;;19.03;13.77;;;;;;;0.90;34.61;100938.81;6370452;22;19993;-81
2022/03/21 02:39:29;;;;;;;23.07;14.50;;;;;;;0.99;34.81;100963.50;6370450;22;20046;-81
2022/03/21 03:05:11;;;;;;;20.83;15.30;;;;;;;1.60;35.47;101093.75;6325686;22;20003;-85
2022/03/21 03:17:57;;;;;;;20.27;15.17;;;;;;;1.53;35.39;101077.63;6326661;22;20018;-82
2022/03/21 03:34:21;;;;;;;16.33;12.20;;;;;;;1.15;35.34;101048.44;6299258;22;20011;-85
2022/03/21 03:36:46;;;;;;;18.00;13.53;;;;;;;1.77;35.70;101114.50;6308230;22;20014;-82
2022/03/21 03:41:47;;;;;;;15.87;13.57;;;;;;;0.51;35.36;100936.56;6298997;22;20015;-81
2022/03/21 03:44:12;;;;;;;21.60;15.10;;;;;;;1.46;35.65;101094.47;6310495;22;20023;-86
2022/03/21 03:59:34;;;;;;;18.23;14.00;;;;;;;0.85;35.22;100983.28;6324617;22;20006;-83
2022/03/21 04:20:04;;;;;;;20.13;14.97;;;;;;;1.62;35.73;101080.66;6344518;22;19904;-84
2022/03/21 04:27:40;;;;;;;19.63;14.43;;;;;;;1.24;36.25;101060.94;6331921;22;20003;-81
2022/03/21 05:00:59;;;;;;;29.37;20.53;;;;;;;0.69;36.58;100971.97;6313929;22;20026;-82
2022/03/21 05:03:25;;;;;;;39.67;25.00;;;;;;;1.08;36.29;101026.25;6349130;22;20002;-82
2022/03/21 05:11:01;;;;;;;44.97;29.50;;;;;;;1.58;36.48;101163.28;6363183;22;19991;-81
2022/03/21 05:36:43;;;;;;;42.40;27.90;;;;;;;1.50;37.52;101144.63;6305930;22;19899;-83
2022/03/21 05:39:08;;;;;;;46.10;30.40;;;;;;;0.53;37.75;100977.13;6370916;22;19998;-81
2022/03/21 05:51:55;;;;;;;40.73;26.90;;;;;;;1.49;37.75;101106.50;6296396;22;19995;-83
2022/03/21 06:04:41;;;;;;;46.03;28.63;;;;;;;1.84;37.81;101128.88;6348265;22;20010;-81
2022/03/21 06:07:07;;;;;;;34.53;24.23;;;;;;;1.69;38.04;101113.25;6282447;22;20025;-85
2022/03/21 06:09:32;;;;;;;35.43;22.57;;;;;;;0.81;37.63;100962.72;6341870;22;20006;-84
2022/03/21 06:11:58;;;;;;;32.83;19.87;;;;;;;1.63;37.13;101067.56;6341546;22;19995;-85
2022/03/21 06:32:29;;;;;;;19.10;13.13;;;;;;;1.51;35.07;100954.53;6337327;22;20027;-83
2022/03/21 06:34:55;;;;;;;18.40;14.10;;;;;;;2.76;34.96;101170.66;6311160;22;19998;-84
2022/03/21 06:45:13;;;;;;;19.40;14.20;;;;;;;2.96;34.60;101105.13;6347088;22;20109;-86
2022/03/21 06:47:39;;;;;;;19.73;14.27;;;;;;;3.09;34.63;101200.03;6368940;22;19987;-84
2022/03/21 06:50:05;;;;;;;22.30;15.93;;;;;;;1.71;34.52;100892.69;6368645;22;19986;-85
2022/03/21 06:52:32;;;;;;;23.77;15.13;;;;;;;1.75;34.45;100902.00;6341904;22;19998;-85
2022/03/21 06:54:58;;;;;;;22.23;15.10;;;;;;;1.89;34.78;100912.47;6341862;22;19994;-84
2022/03/21 06:57:23;;;;;;;20.03;14.40;;;;;;;2.87;34.51;101087.41;6368410;22;20002;-87
2022/03/21 06:59:49;;;;;;;19.17;14.07;;;;;;;4.08;34.54;101323.88;6368340;22;20456;-86
2022/03/21 07:02:51;;;;;;;16.03;12.77;;;;;;;3.71;34.41;101189.38;6368447;22;20002;-86
2022/03/21 07:05:19;;;;;;;18.30;13.00;;;;;;;3.62;34.17;101221.28;6276306;22;20013;-85
2022/03/21 07:10:59;;;;;;;23.33;15.27;;;;;;;3.83;33.56;101243.50;6357540;22;20003;-86
2022/03/21 07:13:27;;;;;;;27.93;15.97;;;;;;;3.14;33.63;101066.69;6363202;22;20002;-85
2022/03/21 07:15:53;;;;;;;21.90;14.80;;;;;;;3.28;33.87;101069.28;6358702;22;19998;-85
2022/03/21 07:18:18;;;;;;;21.23;14.03;;;;;;;2.94;33.80;101031.31;6341295;22;20054;-88
2022/03/21 07:20:44;;;;;;;24.17;15.03;;;;;;;3.45;33.43;101095.19;6339019;22;20443;-86
2022/03/21 07:23:10;;;;;;;25.23;17.37;;;;;;;3.97;33.40;101152.03;6338730;22;20002;-89
2022/03/21 07:25:35;;;;;;;21.87;13.03;;;;;;;3.94;33.51;101139.19;6310192;22;20051;-89
2022/03/21 07:28:01;;;;;;;17.60;12.10;;;;;;;4.71;33.26;101266.75;6310983;22;20009;-89
2022/03/21 07:30:26;;;;;;;18.23;12.63;;;;;;;4.37;33.21;101197.41;6337386;22;20018;-89
2022/03/21 07:32:52;;;;;;;14.57;11.17;;;;;;;4.93;33.09;101323.78;6338128;22;20002;-90
2022/03/21 07:35:17;;;;;;;17.80;12.33;;;;;;;5.14;33.00;101321.56;6311015;22;19998;-89
2022/03/21 07:37:52;;;;;;;18.83;11.67;;;;;;;4.39;32.55;101169.38;6325378;22;19995;-89
2022/03/21 07:40:18;;;;;;;19.17;11.20;;;;;;;5.79;32.60;101384.50;6361680;22;20039;-89
2022/03/21 07:42:46;;;;;;;16.53;11.83;;;;;;;5.16;32.35;101280.41;6360925;22;19994;-90
2022/03/21 07:47:58;;;;;;;15.20;10.70;;;;;;;5.63;32.11;101352.41;6338213;22;20470;-90
2022/03/21 07:50:24;;;;;;;14.13;9.80;;;;;;;6.06;31.74;101376.63;6337053;22;19995;-89
2022/03/21 07:52:54;;;;;;;15.67;10.93;;;;;;;6.19;31.15;101368.78;6309623;22;20006;-89
2022/03/21 07:55:21;;;;;;;16.27;9.60;;;;;;;4.67;30.91;101147.53;6337216;22;19995;-89
2022/03/21 07:57:46;;;;;;;10.43;7.50;;;;;;;6.02;30.73;101320.09;6336465;22;19995;-89
2022/03/21 08:00:14;;;;;;;10.53;6.87;;;;;;;6.21;30.40;101312.63;6308632;22;20081;-89
2022/03/21 08:02:42;;;;;;;9.07;6.23;;;;;;;6.23;30.04;101317.78;6308237;22;19995;-90
2022/03/21 08:05:08;;;;;;;12.90;9.13;;;;;;;6.33;29.49;101322.28;6307377;22;20022;-88
2022/03/21 08:07:36;;;;;;;24.00;15.73;;;;;;;6.10;29.39;101239.13;6336546;22;20382;-90
2022/03/21 08:10:05;;;;;;;11.27;8.13;;;;;;;6.30;28.98;101298.88;6309580;22;20021;-89
2022/03/21 08:12:31;;;;;;;14.00;9.30;;;;;;;6.41;29.15;101313.03;6308603;22;20018;-88
2022/03/21 08:14:56;;;;;;;9.90;6.97;;;;;;;6.18;29.41;101239.41;6340764;22;20102;-89
2022/03/21 08:17:22;;;;;;;11.20;8.50;;;;;;;6.93;29.17;101358.28;6359159;22;19999;-88
2022/03/21 08:19:48;;;;;;;11.97;8.33;;;;;;;5.11;28.80;101050.31;6325940;22;19999;-87
2022/03/21 08:22:15;;;;;;;11.90;8.10;;;;;;;6.54;28.35;101261.34;6308195;22;20470;-88
2022/03/21 08:24:40;;;;;;;11.17;7.17;;;;;;;6.92;28.43;101319.00;6336512;22;19994;-88
2022/03/21 08:27:06;;;;;;;11.47;6.73;;;;;;;7.24;27.64;101342.91;6309281;22;19998;-88
2022/03/21 08:29:32;;;;;;;14.70;6.10;;;;;;;6.85;27.70;101308.09;6336376;22;20052;-89
2022/03/21 08:31:57;;;;;;;9.10;5.87;;;;;;;7.04;27.30;101293.63;6309148;22;20025;-89
2022/03/21 08:34:23;;;;;;;7.70;4.87;;;;;;;7.42;27.01;101328.41;6308725;22;20440;-87
2022/03/21 08:36:49;;;;;;;7.57;5.20;;;;;;;7.36;26.63;101305.22;6336347;22;20348;-89
2022/03/21 08:39:14;;;;;;;6.30;4.37;;;;;;;7.04;26.35;101243.72;6337136;22;19994;-89
2022/03/21 08:41:40;;;;;;;8.20;5.30;;;;;;;7.76;25.80;101332.00;6336599;22;19995;-89
2022/03/21 08:44:05;;;;;;;6.93;5.20;;;;;;;7.87;26.31;101354.84;6308818;22;19998;-89
2022/03/21 08:46:31;;;;;;;11.33;6.23;;;;;;;7.74;26.27;101320.78;6336240;22;20055;-88
2022/03/21 08:51:43;;;;;;;6.50;5.40;;;;;;;8.02;25.53;101326.56;6335897;22;20359;-88
2022/03/21 08:54:09;;;;;;;12.63;5.40;;;;;;;8.22;25.38;101344.28;6308300;22;20009;-89
2022/03/21 08:56:35;;;;;;;6.90;5.67;;;;;;;8.34;24.68;101350.44;6308730;22;20336;-90
2022/03/21 08:59:01;;;;;;;7.27;4.90;;;;;;;7.40;24.41;101188.41;6308860;22;20006;-89
2022/03/21 09:01:27;;;;;;;6.85;5.00;;;;;;;8.40;24.81;101348.16;6336705;22;19995;-89
2022/03/21 09:03:53;;;;;;;5.30;4.60;;;;;;;8.49;24.58;101367.66;6338512;22;20465;-89
2022/03/21 09:06:20;;;;;;;6.85;5.15;;;;;;;8.60;24.73;101336.06;6310612;22;20003;-89
2022/03/21 09:08:50;;;;;;;7.25;4.95;;;;;;;8.77;25.13;101338.19;6310738;22;20346;-89
2022/03/21 09:11:19;;;;;;;10.20;5.90;;;;;;;8.24;24.38;101219.53;6338076;22;20414;-88
2022/03/21 09:13:48;;;;;;;7.55;5.60;;;;;;;9.05;23.62;101331.56;6338433;22;20002;-89
2022/03/21 09:16:15;;;;;;;9.48;5.70;;;;;;;9.12;23.49;101337.16;6338584;22;20447;-88
2022/03/21 09:18:42;;;;;;;6.55;5.07;;;;;;;9.10;23.93;101329.41;6310820;22;20093;-89
2022/03/21 09:21:08;;;;;;;9.63;6.25;;;;;;;8.87;23.75;101285.59;6338753;22;19990;-89
2022/03/21 09:23:33;;;;;;;7.93;4.65;;;;;;;8.40;23.78;101171.81;6338725;22;20009;-89
2022/03/21 09:26:04;;;;;;;6.85;4.95;;;;;;;9.51;23.78;101301.41;6338397;22;20056;-88
2022/03/21 09:28:30;;;;;;;7.40;5.60;;;;;;;9.16;23.61;101239.28;6310760;22;20018;-88
2022/03/21 09:30:56;;;;;;;14.98;5.90;;;;;;;9.30;23.01;101203.88;6311095;22;20074;-89
2022/03/21 09:33:22;;;;;;;6.47;4.63;;;;;;;9.84;23.07;101287.22;6337614;22;20436;-88
2022/03/21 09:35:48;;;;;;;8.35;4.75;;;;;;;9.71;23.15;101228.56;6310621;22;20005;-88
2022/03/21 09:38:14;;;;;;;7.45;4.68;;;;;;;10.16;22.93;101265.97;6310380;22;20022;-88
2022/03/21 09:40:42;;;;;;;6.15;5.30;;;;;;;10.54;22.78;101323.41;6310733;22;20002;-88
2022/03/21 09:43:08;;;;;;;8.05;6.22;;;;;;;10.45;23.19;101276.69;6337920;22;20005;-87
2022/03/21 09:45:35;;;;;;;11.35;7.25;;;;;;;9.83;22.89;101145.72;6338055;22;20034;-87
2022/03/21 09:48:16;;;;;;;10.38;6.72;;;;;;;10.67;22.60;101259.78;6310357;22;20073;-87
2022/03/21 09:50:44;;;;;;;5.50;4.77;;;;;;;10.47;22.67;101209.56;6310336;22;20003;-87
2022/03/21 09:53:14;;;;;;;6.78;5.38;;;;;;;11.19;22.51;101300.88;6337554;22;20755;-87
2022/03/21 09:55:41;;;;;;;6.25;5.10;;;;;;;11.22;22.87;101294.47;6308140;22;20013;-87
2022/03/21 09:58:10;;;;;;;7.07;5.10;;;;;;;11.24;22.19;101261.63;6336423;22;20025;-87
2022/03/21 10:00:37;;;;;;;7.15;5.30;;;;;;;11.60;22.37;101285.66;6309018;22;19999;-86
2022/03/21 10:03:03;;;;;;;7.35;5.57;;;;;;;11.68;22.63;101256.69;6309922;22;19999;-86
2022/03/21 10:05:35;;;;;;;10.77;6.97;;;;;;;11.51;22.27;101192.13;6337100;22;20048;-87
2022/03/21 10:08:23;;;;;;;7.30;5.38;;;;;;;12.40;21.32;101288.66;6309992;22;20002;-87
2022/03/21 10:10:55;;;;;;;12.38;6.68;;;;;;;12.51;20.82;101290.28;6337265;22;20010;-87
2022/03/21 10:13:23;;;;;;;7.05;5.65;;;;;;;12.39;21.30;101291.44;6337265;22;19998;-87
2022/03/21 10:16:04;;;;;;;8.00;6.55;;;;;;;12.03;21.42;101225.13;6337871;22;20450;-87
2022/03/21 10:18:30;;;;;;;5.88;5.28;;;;;;;12.29;21.04;101227.94;6310462;22;20009;-87
2022/03/21 10:21:09;;;;;;;7.72;6.68;;;;;;;12.37;20.92;101233.31;6309995;22;20073;-87
2022/03/21 10:23:35;;;;;;;8.82;5.53;;;;;;;12.15;21.00;101209.91;6310145;22;20026;-86
2022/03/21 10:26:00;;;;;;;9.10;4.05;;;;;;;12.57;21.02;101265.84;6337091;22;20348;-87
2022/03/21 10:28:36;;;;;;;4.40;4.00;;;;;;;12.22;20.98;101196.91;6337648;22;20002;-86
2022/03/21 10:31:04;;;;;;;6.95;5.50;;;;;;;12.71;20.80;101225.59;6338123;22;20003;-87
2022/03/21 10:33:30;;;;;;;5.97;4.30;;;;;;;13.32;20.24;101248.69;6337967;22;20018;-87
2022/03/21 10:35:55;;;;;;;5.75;4.60;;;;;;;13.60;20.43;101264.50;6309869;22;20343;-86
2022/03/21 10:38:33;;;;;;;6.10;4.00;;;;;;;13.39;19.29;101189.75;6309738;22;20006;-85
2022/03/21 10:41:06;;;;;;;5.03;4.57;;;;;;;13.68;18.86;101209.66;6310056;22;20055;-85
2022/03/21 10:43:31;;;;;;;5.88;4.75;;;;;;;13.56;19.82;101196.81;6310462;22;20081;-86
2022/03/21 10:45:57;;;;;;;5.72;5.18;;;;;;;13.38;19.70;101162.38;6309749;22;20090;-88
2022/03/21 10:48:27;;;;;;;6.75;6.05;;;;;;;13.29;19.73;101142.06;6309861;22;20017;-85
2022/03/21 10:50:55;;;;;;;6.80;4.80;;;;;;;13.99;19.44;101231.22;6310529;22;20090;-86
2022/03/21 10:53:28;;;;;;;9.30;6.10;;;;;;;14.08;19.23;101226.78;6310480;22;19999;-85
2022/03/21 10:55:54;;;;;;;5.20;4.57;;;;;;;13.56;19.31;101135.78;6308949;22;20325;-85
2022/03/21 10:58:34;;;;;;;9.20;5.00;;;;;;;14.03;19.51;101191.91;6335686;22;20006;-85
2022/03/21 11:01:17;;;;;;;9.50;6.15;;;;;;;13.60;18.71;101124.69;6336211;22;20017;-86
2022/03/21 11:03:44;;;;;;;7.25;5.82;;;;;;;13.69;19.17;101130.84;6309932;22;19998;-86
2022/03/21 11:06:11;;;;;;;5.70;4.32;;;;;;;13.89;19.13;101173.91;6310233;22;20095;-85
2022/03/21 11:08:38;;;;;;;6.03;4.95;;;;;;;14.33;19.05;101209.13;6309658;22;20021;-85
2022/03/21 11:11:05;;;;;;;6.90;5.43;;;;;;;13.89;19.14;101132.28;6334457;22;20006;-85
2022/03/21 11:13:32;;;;;;;9.23;5.65;;;;;;;14.41;18.72;101171.94;6334979;22;19995;-85
2022/03/21 11:15:58;;;;;;;7.50;4.90;;;;;;;14.39;18.95;101178.41;6307693;22;20003;-85
2022/03/21 11:18:27;;;;;;;9.23;5.03;;;;;;;14.18;18.82;101129.22;6308341;22;20002;-85
2022/03/21 11:20:52;;;;;;;7.95;5.25;;;;;;;14.03;18.95;101088.31;6306951;22;20001;-85
2022/03/21 11:23:21;;;;;;;6.28;5.22;;;;;;;13.86;18.49;101055.59;6307820;22;19999;-85
2022/03/21 11:25:55;;;;;;;7.72;5.35;;;;;;;14.37;18.50;101146.69;6335021;22;19995;-85
2022/03/21 11:28:39;;;;;;;6.70;4.65;;;;;;;14.85;17.99;101179.66;6335064;22;20001;-85
2022/03/21 11:31:23;;;;;;;8.30;7.28;;;;;;;15.06;18.25;101184.50;6306742;22;20436;-84
2022/03/21 11:33:48;;;;;;;7.90;5.28;;;;;;;15.17;18.46;101168.22;6307571;22;20436;-85
2022/03/21 11:36:14;;;;;;;6.53;5.13;;;;;;;14.94;18.63;101152.09;6334702;22;20001;-85
2022/03/21 11:38:45;;;;;;;5.90;4.72;;;;;;;15.03;18.58;101116.53;6334815;22;20077;-85
2022/03/21 11:41:18;;;;;;;4.68;4.22;;;;;;;15.46;18.03;101154.34;6334131;22;19995;-85
2022/03/21 11:44:06;;;;;;;5.28;4.50;;;;;;;14.65;18.32;101050.72;6335866;22;20047;-85
2022/03/21 11:46:35;;;;;;;6.57;5.30;;;;;;;15.35;18.10;101146.72;6335958;22;20048;-85
2022/03/21 11:49:16;;;;;;;5.60;4.70;;;;;;;15.01;18.40;101075.97;6335087;22;20239;-85
2022/03/21 11:51:43;;;;;;;7.53;5.28;;;;;;;13.90;18.41;100900.28;6307264;22;20446;-85
2022/03/21 11:54:47;;;;;;;6.53;4.70;;;;;;;15.56;17.86;101131.84;6307480;22;20009;-85
2022/03/21 11:57:15;;;;;;;11.23;6.18;;;;;;;15.41;18.14;101148.72;6154629;23;20008;-85
2022/03/21 11:59:41;;;;;;;6.50;4.43;;;;;;;15.31;18.19;101143.56;6179436;23;20033;-85
2022/03/21 12:02:09;;;;;;;5.85;4.90;;;;;;;15.16;18.11;101140.78;6227774;22;20017;-85
2022/03/21 12:04:35;;;;;;;8.95;5.55;;;;;;;15.23;18.23;101139.09;6335168;22;20002;-87
2022/03/21 12:07:21;;;;;;;8.90;7.25;;;;;;;15.17;18.52;101122.97;6335007;22;19994;-85
2022/03/21 12:09:53;;;;;;;6.47;5.40;;;;;;;14.96;18.52;101118.19;6228354;22;1193176;-84
2022/03/21 12:12:23;;;;;;;8.13;5.75;;;;;;;14.04;18.73;100996.19;6335300;22;20011;-84
2022/03/21 12:14:56;;;;;;;8.40;5.75;;;;;;;14.65;18.84;101117.19;6336923;22;19995;-85
2022/03/21 12:17:22;;;;;;;4.65;4.18;;;;;;;14.32;18.93;101119.78;6309960;22;20002;-85
2022/03/21 12:22:30;;;;;;;6.60;4.57;;;;;;;13.67;19.68;101106.31;6336931;22;20022;-86
2022/03/21 12:24:55;;;;;;;8.90;4.97;;;;;;;13.59;19.60;101106.28;6324123;22;20003;-85
2022/03/21 12:27:47;;;;;;;8.05;5.60;;;;;;;12.93;20.10;101001.63;6364518;22;19983;-85
2022/03/21 12:32:52;;;;;;;7.88;5.60;;;;;;;11.97;20.21;100851.69;6338314;22;20010;-84
2022/03/21 12:35:40;;;;;;;8.07;5.68;;;;;;;13.51;20.04;101098.28;6311776;22;19999;-85
2022/03/21 12:38:11;;;;;;;9.93;6.60;;;;;;;13.45;19.95;101077.69;6338507;22;20021;-85
2022/03/21 12:40:52;;;;;;;5.43;4.00;;;;;;;13.26;20.03;101087.50;6309425;22;20029;-86
2022/03/21 12:43:19;;;;;;;6.90;4.72;;;;;;;12.91;20.44;101053.13;6307324;22;20290;-85
2022/03/21 12:45:45;;;;;;;5.88;3.40;;;;;;;12.92;20.25;101036.25;6334987;22;20355;-86
2022/03/21 12:48:14;;;;;;;13.02;4.10;;;;;;;12.70;20.22;101027.81;6335629;22;20047;-85
2022/03/21 12:50:40;;;;;;;6.07;4.43;;;;;;;12.68;20.22;101042.22;6307990;22;20051;-84
2022/03/21 12:53:11;;;;;;;8.35;5.15;;;;;;;12.45;20.52;101001.28;6307951;22;20351;-86
2022/03/21 12:55:38;;;;;;;6.17;4.10;;;;;;;12.18;20.19;100912.22;6336217;22;20003;-86
2022/03/21 12:58:05;;;;;;;5.85;4.88;;;;;;;13.19;20.35;101069.72;6308302;22;20225;-86
2022/03/21 13:00:37;;;;;;;6.20;4.65;;;;;;;13.15;20.54;101077.13;6335684;22;20005;-87
2022/03/21 13:03:11;;;;;;;6.15;4.32;;;;;;;13.03;20.38;101065.97;6308212;22;19995;-85
2022/03/21 13:11:28;;;;;;;6.47;5.25;;;;;;;12.51;20.38;100992.72;6345089;22;20002;-85
2022/03/21 13:14:15;;;;;;;5.88;4.93;;;;;;;13.09;20.40;101048.59;6347310;22;20351;-84
2022/03/21 13:16:50;;;;;;;12.80;5.55;;;;;;;13.18;20.15;101030.94;6336424;22;20527;-87
2022/03/21 13:19:20;;;;;;;9.30;5.45;;;;;;;12.23;20.47;100886.94;6336062;22;20002;-86
2022/03/21 13:21:48;;;;;;;9.82;5.38;;;;;;;12.37;20.89;100920.78;6336735;22;20180;-86
2022/03/21 13:24:13;;;;;;;8.27;5.88;;;;;;;12.91;20.86;101027.47;6336414;22;20021;-86
2022/03/21 13:26:39;;;;;;;8.68;4.95;;;;;;;12.96;20.54;101050.84;6308536;22;19998;-86
2022/03/21 13:29:13;;;;;;;9.30;5.32;;;;;;;12.88;20.50;101048.97;6335470;22;20048;-87
2022/03/21 13:31:40;;;;;;;12.38;8.80;;;;;;;12.04;21.33;100940.91;6308560;22;20007;-87
2022/03/21 13:34:10;;;;;;;8.00;6.22;;;;;;;12.89;21.28;101040.03;6335551;22;19999;-87
2022/03/21 13:36:45;;;;;;;7.18;5.03;;;;;;;12.80;20.32;100992.44;6307387;22;20085;-87
2022/03/21 13:39:15;;;;;;;5.18;4.30;;;;;;;13.33;20.76;101039.97;6308432;22;20088;-86
2022/03/21 13:41:51;;;;;;;6.72;4.47;;;;;;;13.58;20.04;101035.59;6307959;22;20513;-86
2022/03/21 13:44:16;;;;;;;10.88;5.30;;;;;;;13.70;20.39;101039.63;6305961;22;19999;-86
2022/03/21 13:47:01;;;;;;;7.80;6.47;;;;;;;13.17;19.33;100884.25;6335960;22;20051;-88
2022/03/21 13:49:42;;;;;;;8.70;5.88;;;;;;;14.25;19.37;101028.44;6337494;22;19999;-86
2022/03/21 13:52:08;;;;;;;7.88;6.60;;;;;;;14.27;19.59;101018.50;6337584;22;20006;-86
2022/03/21 13:54:52;;;;;;;9.25;7.18;;;;;;;14.22;19.61;100980.97;6310584;22;19999;-86
2022/03/21 13:57:18;;;;;;;8.30;6.50;;;;;;;14.50;19.19;101021.34;6310410;22;20005;-86
2022/03/21 14:00:01;;;;;;;7.60;5.97;;;;;;;14.25;18.68;100931.00;6337657;22;20002;-85
2022/03/21 14:02:29;;;;;;;10.27;6.18;;;;;;;14.81;19.39;101006.34;6310359;22;20330;-86
2022/03/21 14:04:57;;;;;;;10.57;7.78;;;;;;;14.61;18.75;100965.16;6310038;22;20358;-86
2022/03/21 14:07:32;;;;;;;10.73;8.77;;;;;;;14.41;18.55;100900.06;6337959;22;19998;-85
2022/03/21 14:09:58;;;;;;;7.78;6.28;;;;;;;14.81;18.81;100960.31;6337876;22;20010;-85
2022/03/21 14:12:28;;;;;;;6.97;6.13;;;;;;;14.97;18.76;100964.75;6337770;22;20005;-83
2022/03/21 14:14:54;;;;;;;8.75;6.18;;;;;;;14.60;19.29;100913.84;6309701;22;20011;-84
2022/03/21 14:17:20;;;;;;;10.57;7.40;;;;;;;14.92;19.28;101006.00;6336515;22;20451;-85
2022/03/21 14:19:45;;;;;;;8.10;5.88;;;;;;;14.24;18.90;100955.06;6334795;22;19999;-86
2022/03/21 14:22:11;;;;;;;8.93;6.00;;;;;;;13.98;19.70;100928.66;6309471;22;20006;-84
2022/03/21 14:24:36;;;;;;;10.90;7.90;;;;;;;14.16;19.58;100923.19;6310140;22;19999;-84
2022/03/21 14:27:04;;;;;;;11.65;6.80;;;;;;;14.42;19.50;100987.63;6309552;22;20401;-84
2022/03/21 14:29:30;;;;;;;10.48;7.00;;;;;;;14.00;20.12;100947.91;6337244;22;20055;-85
2022/03/21 14:31:55;;;;;;;10.90;6.95;;;;;;;13.91;19.70;100949.72;6336411;22;20002;-84
2022/03/21 14:34:21;;;;;;;9.98;6.03;;;;;;;14.14;19.86;100963.22;6309540;22;20003;-84
2022/03/21 14:36:47;;;;;;;11.63;6.72;;;;;;;14.42;19.64;100987.63;6337630;22;20002;-84
2022/03/21 14:39:14;;;;;;;7.43;6.00;;;;;;;14.18;19.40;100958.38;6337212;22;20079;-86
2022/03/21 14:41:39;;;;;;;9.48;7.35;;;;;;;14.07;19.62;100937.44;6309166;22;20001;-84
2022/03/21 14:44:05;;;;;;;7.57;6.78;;;;;;;13.85;19.46;100913.22;6337374;22;20069;-84
2022/03/21 14:46:31;;;;;;;8.60;6.68;;;;;;;13.95;20.05;100990.06;6336885;22;19995;-84
2022/03/21 14:48:56;;;;;;;9.10;6.85;;;;;;;13.97;20.14;100972.97;6337198;22;20026;-84
2022/03/21 14:51:21;;;;;;;11.95;8.27;;;;;;;14.03;20.42;100960.03;6336758;22;20398;-85
2022/03/21 14:53:47;;;;;;;15.75;8.50;;;;;;;14.09;20.25;100980.59;6308811;22;20018;-85
2022/03/21 14:56:13;;;;;;;14.43;7.43;;;;;;;14.11;20.04;100973.31;6336155;22;19995;-85
2022/03/21 14:58:38;;;;;;;10.45;7.85;;;;;;;14.26;20.30;100998.22;6336830;22;19998;-84
2022/03/21 15:01:07;;;;;;;11.20;7.82;;;;;;;13.47;20.03;100895.28;6336345;22;20348;-85
2022/03/21 15:03:34;;;;;;;9.05;7.40;;;;;;;13.56;20.38;100960.63;6337195;22;20002;-85
2022/03/21 15:06:00;;;;;;;10.90;7.35;;;;;;;13.13;20.43;100935.09;6337747;22;19995;-85
2022/03/21 15:08:25;;;;;;;10.52;7.53;;;;;;;12.89;20.46;100896.88;6335941;22;20001;-84
2022/03/21 15:10:51;;;;;;;9.15;6.63;;;;;;;13.44;20.57;101001.72;6336465;22;20437;-85
2022/03/21 15:13:17;;;;;;;9.40;7.55;;;;;;;13.12;20.92;100960.78;6336065;22;20033;-85
2022/03/21 15:15:44;;;;;;;9.23;7.20;;;;;;;12.99;20.47;100953.25;6337313;22;19991;-85
2022/03/21 15:18:10;;;;;;;18.25;8.63;;;;;;;12.54;20.80;100899.69;6309582;22;20082;-85
2022/03/21 15:20:36;;;;;;;13.40;9.15;;;;;;;12.93;20.81;100966.31;6309065;22;20083;-84
2022/03/21 15:23:02;;;;;;;11.15;8.45;;;;;;;13.03;21.12;100993.53;6308421;22;20493;-85
2022/03/21 15:25:27;;;;;;;13.57;8.85;;;;;;;12.77;21.01;100984.78;6337235;22;19999;-85
2022/03/21 15:27:54;;;;;;;11.00;9.00;;;;;;;12.67;21.44;100992.84;6337458;22;20503;-85
2022/03/21 15:30:19;;;;;;;9.38;7.57;;;;;;;12.32;21.02;100948.72;6335755;22;19991;-85
2022/03/21 15:32:46;;;;;;;12.30;8.07;;;;;;;12.58;21.65;100985.81;6334245;22;20406;-85
2022/03/21 15:35:13;;;;;;;11.55;8.23;;;;;;;12.13;21.52;100940.97;6309407;22;20040;-85
2022/03/21 15:43:07;;;;;;;12.02;8.32;;;;;;;11.95;21.80;100933.88;6336772;22;20380;-85
2022/03/21 15:45:33;;;;;;;21.75;16.95;;;;;;;12.22;22.16;100988.53;6308926;22;20003;-85
2022/03/21 15:47:59;;;;;;;20.90;15.05;;;;;;;11.52;21.98;100879.03;6336081;22;20006;-85
2022/03/21 15:50:25;;;;;;;27.88;20.25;;;;;;;12.18;22.70;100991.63;6307049;22;20448;-85
2022/03/21 15:52:51;;;;;;;15.20;9.23;;;;;;;11.87;22.47;100970.00;6334226;22;20440;-85
2022/03/21 15:55:17;;;;;;;13.65;8.95;;;;;;;12.02;22.23;100989.69;6336200;22;20003;-85
2022/03/21 15:57:43;;;;;;;14.40;9.80;;;;;;;11.53;22.37;100919.53;6308007;22;20002;-85
2022/03/21 16:00:14;;;;;;;19.95;10.38;;;;;;;11.96;22.36;100988.47;6334598;22;20436;-83
2022/03/21 16:02:41;;;;;;;14.55;9.70;;;;;;;11.64;22.67;100970.41;6308793;22;20001;-86
2022/03/21 16:05:11;;;;;;;18.10;10.40;;;;;;;11.58;22.71;100967.53;6336994;22;20471;-84
2022/03/21 16:07:41;;;;;;;13.25;10.05;;;;;;;11.76;22.47;100990.38;6337165;22;20472;-85
2022/03/21 16:10:09;;;;;;;15.00;10.27;;;;;;;11.01;22.87;100893.69;6336728;22;20568;-86
2022/03/21 16:12:37;;;;;;;18.02;12.30;;;;;;;11.60;22.99;100992.84;6308938;22;20487;-85